createdAt,value
2022-12-04T00:00:44.965Z,100919.09
2022-12-04T00:03:48.292Z,100908.16
2022-12-04T00:06:54.113Z,100908.56
2022-12-04T00:10:01.740Z,100917.06
2022-12-04T00:13:04.421Z,100910.59
2022-12-04T00:16:10.135Z,100914.44
2022-12-04T00:19:12.733Z,100924.31
2022-12-04T00:22:15.597Z,100917.06
2022-12-04T00:25:18.848Z,100914.63
2022-12-04T00:28:21.748Z,100919.09
2022-12-04T00:31:27.396Z,100926.56
2022-12-04T00:34:30.388Z,100919.88
2022-12-04T00:37:33.463Z,100923.94
2022-12-04T00:40:36.851Z,100922.91
2022-12-04T00:43:41.196Z,100927.38
2022-12-04T00:46:44.208Z,100914.63
2022-12-04T00:49:46.789Z,100921.28
2022-12-04T00:52:50.097Z,100921.91
2022-12-04T00:55:52.651Z,100924.31
2022-12-04T00:58:58.790Z,100923.91
2022-12-04T01:09:32.502Z,100923.91
2022-12-04T01:12:35.468Z,100913.97
2022-12-04T01:15:40.039Z,100905.09
2022-12-04T01:18:43.024Z,100923.50
2022-12-04T01:21:45.644Z,100934.53
2022-12-04T01:24:55.696Z,100928.31
2022-12-04T01:27:58.354Z,100928.69
2022-12-04T01:31:06.955Z,100924.22
2022-12-04T01:34:09.573Z,100910.03
2022-12-04T01:37:12.460Z,100898.44
2022-12-04T01:40:17.219Z,100897.25
2022-12-04T01:43:21.111Z,100895.59
2022-12-04T01:46:23.727Z,100895.41
2022-12-04T01:49:48.077Z,100898.03
2022-12-04T01:52:51.499Z,100896.44
2022-12-04T01:55:56.525Z,100890.97
2022-12-04T01:59:02.535Z,100894.81
2022-12-04T02:02:10.913Z,100887.13
2022-12-04T02:05:18.075Z,100879.84
2022-12-04T02:08:21.139Z,100873.19
2022-12-04T02:11:38.928Z,100879.22
2022-12-04T02:14:56.379Z,100874.56
2022-12-04T02:18:18.056Z,100868.69
2022-12-04T02:21:20.675Z,100872.53
2022-12-04T02:25:05.544Z,100875.34
2022-12-04T02:28:40.684Z,100887.44
2022-12-04T02:32:25.315Z,100883.22
2022-12-04T02:35:33.423Z,100874.19
2022-12-04T02:38:44.544Z,100881.22
2022-12-04T02:42:13.160Z,100875.19
2022-12-04T02:45:22.117Z,100876.19
2022-12-04T02:48:26.549Z,100867.47
2022-12-04T02:51:34.941Z,100866.47
2022-12-04T02:54:42.191Z,100868.31
2022-12-04T02:57:52.701Z,100877.19
2022-12-04T03:00:56.457Z,100883.06
2022-12-04T03:04:30.799Z,100879.44
2022-12-04T03:07:40.248Z,100876.19
2022-12-04T03:10:57.988Z,100870.94
2022-12-04T03:14:23.743Z,100862.06
2022-12-04T03:17:33.157Z,100858.78
2022-12-04T03:20:38.296Z,100865.03
2022-12-04T03:23:47.796Z,100861.63
2022-12-04T03:26:59.218Z,100856.78
2022-12-04T03:30:09.469Z,100858.16
2022-12-04T03:33:17.334Z,100871.94
2022-12-04T03:36:32.743Z,100868.53
2022-12-04T03:39:43.372Z,100866.28
2022-12-04T03:43:00.648Z,100862.81
2022-12-04T03:46:29.624Z,100867.69
2022-12-04T03:49:48.488Z,100855.97
2022-12-04T03:53:25.781Z,100858.78
2022-12-04T03:56:35.236Z,100873.94
2022-12-04T03:59:43.409Z,100864.44
2022-12-04T04:03:01.177Z,100867.69
2022-12-04T04:06:16.356Z,100866.84
2022-12-04T04:09:24.419Z,100856.56
2022-12-04T04:12:32.578Z,100854.75
2022-12-04T04:16:00.927Z,100853.31
2022-12-04T04:19:22.771Z,100861.66
2022-12-04T04:22:46.130Z,100860.41
2022-12-04T04:25:51.204Z,100872.72
2022-12-04T04:28:53.813Z,100875.38
2022-12-04T04:32:10.409Z,100874.16
2022-12-04T04:35:21.472Z,100885.41
2022-12-04T04:38:31.829Z,100881.97
2022-12-04T04:41:51.204Z,100884.22
2022-12-04T04:45:25.428Z,100898.19
2022-12-04T04:48:47.923Z,100893.34
2022-12-04T04:51:50.920Z,100885.47
2022-12-04T04:54:54.138Z,100887.91
2022-12-04T04:58:09.959Z,100882.66
2022-12-04T05:01:16.937Z,100888.66
2022-12-04T05:04:20.029Z,100887.47
2022-12-04T05:07:22.719Z,100885.06
2022-12-04T05:10:25.713Z,100871.69
2022-12-04T05:13:30.248Z,100876.34
2022-12-04T05:16:33.331Z,100891.69
2022-12-04T05:19:54.869Z,100897.13
2022-12-04T05:22:58.552Z,100889.44
2022-12-04T05:26:02.762Z,100876.88
2022-12-04T05:29:05.988Z,100880.50
2022-12-04T05:32:08.859Z,100886.97
2022-12-04T05:35:12.071Z,100891.00
2022-12-04T05:38:14.686Z,100884.53
2022-12-04T05:41:17.929Z,100875.25
2022-12-04T05:44:20.619Z,100874.22
2022-12-04T05:47:23.741Z,100882.13
2022-12-04T05:50:26.413Z,100886.12
2022-12-04T05:53:29.276Z,100889.94
2022-12-04T05:56:31.908Z,100886.72
2022-12-04T05:59:35.459Z,100880.03
2022-12-04T06:02:38.303Z,100876.63
2022-12-04T06:05:41.441Z,100881.47
2022-12-04T06:08:47.045Z,100882.00
2022-12-04T06:11:50.128Z,100888.84
2022-12-04T06:14:52.781Z,100894.56
2022-12-04T06:17:55.708Z,100891.19
2022-12-04T06:20:58.981Z,100889.81
2022-12-04T06:24:02.497Z,100890.91
2022-12-04T06:27:26.782Z,100888.81
2022-12-04T06:30:28.223Z,100877.87
2022-12-04T06:33:31.288Z,100880.94
2022-12-04T06:36:35.145Z,100893.75
2022-12-04T06:39:38.428Z,100906.69
2022-12-04T06:42:41.380Z,100912.31
2022-12-04T06:45:44.087Z,100896.41
2022-12-04T06:48:47.674Z,100900.06
2022-12-04T06:51:51.026Z,100888.22
2022-12-04T06:54:54.295Z,100890.84
2022-12-04T06:57:57.098Z,100890.91
2022-12-04T07:01:05.681Z,100888.84
2022-12-04T07:04:08.602Z,100889.53
2022-12-04T07:07:11.868Z,100891.47
2022-12-04T07:10:14.549Z,100885.81
2022-12-04T07:13:17.527Z,100897.22
2022-12-04T07:16:22.255Z,100891.84
2022-12-04T07:19:25.417Z,100907.47
2022-12-04T07:22:28.331Z,100905.69
2022-12-04T07:25:31.450Z,100900.84
2022-12-04T07:28:36.148Z,100905.69
2022-12-04T07:31:39.678Z,100910.59
2022-12-04T07:34:44.158Z,100909.34
2022-12-04T07:37:47.305Z,100898.03
2022-12-04T07:40:50.231Z,100902.91
2022-12-04T07:43:55.997Z,100899.03
2022-12-04T07:46:58.939Z,100908.78
2022-12-04T07:50:02.593Z,100909.34
2022-12-04T07:53:08.616Z,100912.38
2022-12-04T07:56:16.091Z,100910.59
2022-12-04T07:59:19.101Z,100901.50
2022-12-04T08:02:22.321Z,100907.38
2022-12-04T08:05:25.483Z,100912.63
2022-12-04T08:08:30.159Z,100921.31
2022-12-04T08:11:33.243Z,100913.22
2022-12-04T08:14:36.066Z,100904.31
2022-12-04T08:17:39.692Z,100900.28
2022-12-04T08:20:42.702Z,100905.31
2022-12-04T08:23:45.696Z,100895.59
2022-12-04T08:26:48.442Z,100901.44
2022-12-04T08:29:51.557Z,100902.06
2022-12-04T08:32:57.435Z,100900.78
2022-12-04T08:36:00.924Z,100895.13
2022-12-04T08:39:04.154Z,100904.44
2022-12-04T08:42:07.234Z,100908.00
2022-12-04T08:45:10.614Z,100912.81
2022-12-04T08:48:13.690Z,100915.63
2022-12-04T08:51:19.841Z,100914.78
2022-12-04T08:54:24.676Z,100908.63
2022-12-04T08:57:27.424Z,100916.91
2022-12-04T09:00:31.625Z,100905.41
2022-12-04T09:03:35.298Z,100897.84
2022-12-04T09:06:38.334Z,100893.91
2022-12-04T09:09:46.547Z,100898.53
2022-12-04T09:12:51.843Z,100889.25
2022-12-04T09:15:54.734Z,100896.44
2022-12-04T09:18:58.087Z,100887.84
2022-12-04T09:22:03.515Z,100900.25
2022-12-04T09:25:07.845Z,100890.56
2022-12-04T09:28:10.652Z,100894.91
2022-12-04T09:31:14.943Z,100887.81
2022-12-04T09:34:18.939Z,100892.72
2022-12-04T09:37:24.462Z,100882.47
2022-12-04T09:40:43.632Z,100881.75
2022-12-04T09:44:20.790Z,100872.22
2022-12-04T09:47:37.578Z,100872.62
2022-12-04T09:50:43.554Z,100866.75
2022-12-04T09:53:56.672Z,100852.84
2022-12-04T09:57:08.847Z,100845.66
2022-12-04T10:00:15.954Z,100846.03
2022-12-04T10:03:22.215Z,100855.50
2022-12-04T10:06:39.984Z,100851.47
2022-12-04T10:09:56.151Z,100847.37
2022-12-04T10:13:17.704Z,100846.81
2022-12-04T10:16:45.841Z,100845.53
2022-12-04T10:19:56.706Z,100840.00
2022-12-04T10:34:20.085Z,100817.84
2022-12-04T10:37:24.905Z,100823.78
2022-12-04T10:40:35.832Z,100822.78
2022-12-04T10:43:50.558Z,100818.19
2022-12-04T10:46:58.596Z,100802.78
2022-12-04T10:50:15.375Z,100784.78
2022-12-04T10:53:23.333Z,100788.22
2022-12-04T10:56:36.667Z,100771.56
2022-12-04T10:59:50.707Z,100774.78
2022-12-04T11:02:55.921Z,100757.53
2022-12-04T11:06:02.155Z,100762.25
2022-12-04T11:09:05.354Z,100774.19
2022-12-04T11:12:22.501Z,100777.88
2022-12-04T11:15:28.750Z,100776.37
2022-12-04T11:18:34.173Z,100765.56
2022-12-04T11:21:38.757Z,100761.22
2022-12-04T11:24:42.945Z,100747.00
2022-12-04T11:27:52.966Z,100745.66
2022-12-04T11:30:58.474Z,100753.97
2022-12-04T11:34:18.506Z,100752.19
2022-12-04T11:47:57.276Z,100757.41
2022-12-04T11:51:02.756Z,100758.69
2022-12-04T11:54:28.320Z,100758.09
2022-12-04T11:57:35.534Z,100747.41
2022-12-04T12:01:29.540Z,100753.19
2022-12-04T12:05:02.817Z,100754.31
2022-12-04T12:08:29.754Z,100762.94
2022-12-04T12:11:39.995Z,100752.94
2022-12-04T12:15:20.216Z,100755.81
2022-12-04T12:19:05.753Z,100753.28
2022-12-04T12:22:26.004Z,100760.66
2022-12-04T12:26:22.047Z,100760.75
2022-12-04T12:29:42.514Z,100752.69
2022-12-04T14:31:22.412Z,100760.88
2022-12-04T14:34:32.032Z,100766.94
2022-12-04T14:37:37.909Z,100768.47
2022-12-04T14:40:49.532Z,100764.09
2022-12-04T14:43:53.018Z,100761.78
2022-12-04T14:47:04.406Z,100759.97
2022-12-04T14:50:48.331Z,100769.63
2022-12-04T14:54:06.158Z,100765.69
2022-12-04T14:57:46.478Z,100751.94
2022-12-04T15:00:54.879Z,100765.34
2022-12-04T15:04:17.553Z,100768.13
2022-12-04T15:07:28.775Z,100763.41
2022-12-04T15:10:52.258Z,100767.09
2022-12-04T15:14:05.098Z,100764.22
2022-12-04T15:17:10.805Z,100766.50
2022-12-04T15:20:19.352Z,100766.97
2022-12-04T15:23:37.236Z,100769.37
2022-12-04T15:26:40.688Z,100762.94
2022-12-04T15:29:48.393Z,100763.75
2022-12-04T15:32:53.619Z,100766.72
2022-12-04T15:36:00.596Z,100764.56
2022-12-04T15:39:05.299Z,100772.56
2022-12-04T15:42:23.400Z,100776.25
2022-12-04T15:45:31.800Z,100769.94
2022-12-04T15:48:34.692Z,100774.78
2022-12-04T15:51:38.251Z,100765.59
2022-12-04T15:54:59.825Z,100770.41
2022-12-04T15:58:16.748Z,100769.63
2022-12-04T16:01:21.365Z,100770.97
2022-12-04T16:04:29.150Z,100775.81
2022-12-04T16:07:32.498Z,100762.50
2022-12-04T16:10:36.133Z,100768.81
2022-12-04T16:13:39.101Z,100762.34
2022-12-04T16:16:53.487Z,100769.13
2022-12-04T16:19:57.236Z,100765.56
2022-12-04T16:23:00.306Z,100768.44
2022-12-04T16:26:02.996Z,100780.19
2022-12-04T16:29:06.409Z,100775.34
2022-12-04T16:32:14.658Z,100779.59
2022-12-04T16:35:17.805Z,100781.75
2022-12-04T16:38:20.713Z,100783.03
2022-12-04T16:41:23.721Z,100776.72
2022-12-04T16:44:26.386Z,100779.25
2022-12-04T16:47:29.375Z,100784.75
2022-12-04T16:50:32.139Z,100773.72
2022-12-04T16:53:35.255Z,100775.53
2022-12-04T16:56:37.948Z,100775.91
2022-12-04T16:59:40.955Z,100767.97
2022-12-04T17:02:45.227Z,100764.62
2022-12-04T17:05:48.132Z,100775.78
2022-12-04T17:08:50.748Z,100769.34
2022-12-04T17:11:53.727Z,100762.34
2022-12-04T17:14:59.231Z,100761.53
2022-12-04T17:18:05.983Z,100773.25
2022-12-04T17:21:13.953Z,100771.09
2022-12-04T17:24:17.146Z,100775.31
2022-12-04T17:27:19.878Z,100783.59
2022-12-04T17:30:22.933Z,100779.91
2022-12-04T17:33:26.095Z,100785.56
2022-12-04T17:36:29.102Z,100781.38
2022-12-04T17:39:31.934Z,100790.69
2022-12-04T17:42:34.865Z,100786.56
2022-12-04T17:45:41.317Z,100787.28
2022-12-04T17:48:44.603Z,100785.31
2022-12-04T17:51:47.348Z,100799.66
2022-12-04T17:54:50.569Z,100792.87
2022-12-04T17:57:53.369Z,100799.91
2022-12-04T18:01:03.044Z,100798.06
2022-12-04T18:04:09.741Z,100796.91
2022-12-04T18:07:12.507Z,100794.50
2022-12-04T18:10:15.974Z,100796.69
2022-12-04T18:13:19.130Z,100798.75
2022-12-04T18:16:23.254Z,100794.94
2022-12-04T18:19:28.184Z,100785.03
2022-12-04T18:22:31.167Z,100791.59
2022-12-04T18:25:34.005Z,100789.78
2022-12-04T18:28:37.150Z,100789.13
2022-12-04T18:31:41.182Z,100794.56
2022-12-04T18:34:44.434Z,100793.19
2022-12-04T18:37:47.266Z,100791.03
2022-12-04T18:40:51.141Z,100788.63
2022-12-04T18:43:54.324Z,100798.16
2022-12-04T18:46:57.467Z,100793.91
2022-12-04T18:50:03.275Z,100795.53
2022-12-04T18:53:06.555Z,100790.00
2022-12-04T18:56:09.766Z,100797.47
2022-12-04T18:59:18.630Z,100803.81
2022-12-04T19:02:22.724Z,100801.72
2022-12-04T19:05:25.885Z,100798.00
2022-12-04T19:08:33.262Z,100801.78
2022-12-04T19:11:38.962Z,100801.44
2022-12-04T19:14:41.722Z,100797.06
2022-12-04T19:17:44.842Z,100809.78
2022-12-04T19:20:47.473Z,100813.00
2022-12-04T19:24:00.876Z,100804.41
2022-12-04T19:27:10.971Z,100803.59
2022-12-04T19:30:13.939Z,100803.94
2022-12-04T19:33:17.068Z,100813.78
2022-12-04T19:36:20.260Z,100807.13
2022-12-04T19:39:23.034Z,100813.47
2022-12-04T19:42:26.030Z,100815.75
2022-12-04T19:45:28.871Z,100802.81
2022-12-04T19:48:31.958Z,100818.03
2022-12-04T19:51:38.505Z,100816.03
2022-12-04T19:54:41.752Z,100809.16
2022-12-04T19:57:44.669Z,100810.75
2022-12-04T20:00:48.507Z,100823.00
2022-12-04T20:03:51.516Z,100831.06
2022-12-04T20:06:54.304Z,100833.50
2022-12-04T20:09:57.634Z,100839.66
2022-12-04T20:13:00.551Z,100836.84
2022-12-04T20:16:05.690Z,100848.38
2022-12-04T20:19:13.102Z,100849.19
2022-12-04T20:22:16.008Z,100847.88
2022-12-04T20:25:18.643Z,100848.31
2022-12-04T20:28:22.450Z,100853.06
2022-12-04T20:31:33.060Z,100843.16
2022-12-04T20:34:43.081Z,100843.19
2022-12-04T20:37:46.211Z,100843.84
2022-12-04T20:40:49.185Z,100851.69
2022-12-04T20:43:52.047Z,100844.13
2022-12-04T20:46:55.047Z,100847.00
2022-12-04T20:49:57.868Z,100848.38
2022-12-04T20:53:01.015Z,100850.00
2022-12-04T20:56:03.622Z,100847.75
